createdAt,value
2018-07-05T01:00:30.632Z,75.60
2018-07-05T01:06:34.074Z,76.10
2018-07-05T01:09:25.897Z,76.70
2018-07-05T01:18:29.855Z,77.20
2018-07-05T01:21:17.948Z,77.50
2018-07-05T01:24:15.137Z,77.60
2018-07-05T01:30:09.124Z,78.50
2018-07-05T01:32:58.720Z,78.80
2018-07-05T01:35:59.561Z,79.40
2018-07-05T01:38:47.911Z,79.30
2018-07-05T01:41:42.412Z,79.60
2018-07-05T01:44:26.619Z,80.20
2018-07-05T01:47:12.308Z,79.90
2018-07-05T01:53:02.871Z,80.50
2018-07-05T01:59:03.698Z,81.10
2018-07-05T02:15:48.208Z,81.80
2018-07-05T02:18:30.905Z,82.10
2018-07-05T02:21:13.423Z,82.50
2018-07-05T02:23:55.419Z,82.30
2018-07-05T02:26:38.395Z,82.70
2018-07-05T02:29:20.719Z,83.00
2018-07-05T02:32:02.705Z,83.00
2018-07-05T02:34:44.758Z,83.50
2018-07-05T02:37:32.287Z,83.10
2018-07-05T02:40:14.810Z,83.50
2018-07-05T02:45:34.415Z,83.20
2018-07-05T02:48:18.494Z,83.00
2018-07-05T02:51:01.105Z,82.80
2018-07-05T02:53:43.741Z,82.70
2018-07-05T02:56:26.094Z,82.70
2018-07-05T02:59:08.940Z,82.80
2018-07-05T03:01:51.596Z,82.80
2018-07-05T03:07:22.967Z,82.80
2018-07-05T03:10:05.838Z,82.80
2018-07-05T03:12:48.598Z,82.90
2018-07-05T03:15:31.316Z,82.80
2018-07-05T03:18:14.807Z,82.90
2018-07-05T03:20:57.734Z,82.80
2018-07-05T03:23:39.503Z,82.80
2018-07-05T03:26:21.926Z,83.00
2018-07-05T03:29:04.357Z,83.40
2018-07-05T03:31:46.835Z,83.30
2018-07-05T03:34:28.790Z,83.30
2018-07-05T03:37:11.631Z,83.50
2018-07-05T03:39:54.973Z,83.70
2018-07-05T03:42:38.762Z,83.70
2018-07-05T03:45:21.170Z,83.70
2018-07-05T04:03:49.777Z,83.80
2018-07-05T04:06:33.285Z,83.00
2018-07-05T04:09:15.368Z,83.30
2018-07-05T04:11:58.021Z,83.60
2018-07-05T04:14:40.055Z,84.00
2018-07-05T04:17:22.804Z,84.30
2018-07-05T04:20:05.836Z,84.30
2018-07-05T04:22:48.488Z,84.50
2018-07-05T04:25:31.665Z,84.70
2018-07-05T04:28:13.917Z,85.10
2018-07-05T04:30:56.672Z,85.40
2018-07-05T04:33:38.729Z,85.80
2018-07-05T04:36:21.936Z,85.90
2018-07-05T04:39:04.638Z,86.20
2018-07-05T04:41:46.891Z,86.40
2018-07-05T04:44:29.398Z,86.60
2018-07-05T04:47:12.191Z,87.00
2018-07-05T04:49:54.691Z,86.70
2018-07-05T04:52:37.346Z,87.20
2018-07-05T04:55:19.753Z,87.60
2018-07-05T04:58:02.166Z,87.40
2018-07-05T05:00:45.010Z,87.30
2018-07-05T05:03:27.443Z,88.20
2018-07-05T05:06:10.124Z,87.50
2018-07-05T05:08:52.830Z,87.50
2018-07-05T05:11:34.659Z,87.50
2018-07-05T05:14:22.615Z,87.30
2018-07-05T05:17:07.257Z,87.80
2018-07-05T05:19:49.334Z,87.70
2018-07-05T05:22:32.104Z,87.90
2018-07-05T05:25:14.749Z,87.90
2018-07-05T05:27:56.985Z,88.00
2018-07-05T05:30:40.299Z,87.80
2018-07-05T05:33:22.639Z,87.80
2018-07-05T05:36:09.746Z,87.80
2018-07-05T05:38:51.614Z,88.00
2018-07-05T05:41:35.059Z,88.20
2018-07-05T05:44:17.066Z,88.20
2018-07-05T05:46:58.954Z,88.40
2018-07-05T05:49:41.565Z,88.80
2018-07-05T05:52:24.047Z,88.90
2018-07-05T05:55:06.310Z,89.50
2018-07-05T05:57:49.278Z,89.30
2018-07-05T06:00:31.937Z,89.50
2018-07-05T06:03:20.391Z,89.70
2018-07-05T06:06:02.836Z,89.70
2018-07-05T06:08:44.939Z,90.10
2018-07-05T06:11:27.407Z,90.10
2018-07-05T06:14:09.889Z,90.20
2018-07-05T06:16:52.723Z,90.30
2018-07-05T06:19:36.319Z,90.40
2018-07-05T06:22:18.644Z,90.40
2018-07-05T06:25:01.120Z,90.40
2018-07-05T06:27:43.567Z,90.60
2018-07-05T06:30:25.672Z,90.70
2018-07-05T06:33:08.160Z,90.60
2018-07-05T06:35:51.847Z,90.60
2018-07-05T06:38:34.274Z,91.00
2018-07-05T06:41:17.187Z,90.70
2018-07-05T06:43:59.355Z,90.80
2018-07-05T06:46:41.965Z,90.80
2018-07-05T06:49:24.476Z,90.90
2018-07-05T06:52:08.330Z,91.30
2018-07-05T06:54:50.799Z,91.00
2018-07-05T06:57:34.290Z,91.00
2018-07-05T07:00:16.264Z,91.10
2018-07-05T07:02:58.626Z,91.10
2018-07-05T07:05:41.117Z,91.30
2018-07-05T07:08:23.094Z,91.30
2018-07-05T07:11:05.687Z,91.30
2018-07-05T07:13:49.096Z,91.30
2018-07-05T07:16:31.848Z,91.20
2018-07-05T07:19:21.431Z,91.20
2018-07-05T07:22:04.642Z,91.00
2018-07-05T07:24:46.823Z,90.90
2018-07-05T07:27:29.743Z,90.80
2018-07-05T07:30:12.268Z,90.80
2018-07-05T07:32:54.852Z,90.80
2018-07-05T07:35:37.585Z,90.80
2018-07-05T07:38:19.943Z,90.70
2018-07-05T07:41:02.568Z,90.60
2018-07-05T07:43:32.466Z,90.60
2018-07-05T07:46:03.253Z,90.50
2018-07-05T07:48:33.194Z,90.40
2018-07-05T07:51:03.518Z,90.40
2018-07-05T07:53:33.702Z,90.60
2018-07-05T07:56:04.129Z,90.30
2018-07-05T07:58:48.158Z,90.20
2018-07-05T08:01:19.218Z,90.20
2018-07-05T08:04:22.859Z,90.10
2018-07-05T08:08:22.423Z,90.00
2018-07-05T08:10:53.650Z,90.00
2018-07-05T08:13:24.447Z,89.80
2018-07-05T08:15:55.687Z,89.90
2018-07-05T08:18:25.659Z,90.00
2018-07-05T08:20:55.584Z,90.10
2018-07-05T08:26:11.978Z,90.10
2018-07-05T08:28:41.860Z,90.10
2018-07-05T08:31:22.683Z,90.20
2018-07-05T08:33:53.213Z,90.30
2018-07-05T08:39:41.979Z,90.40
2018-07-05T08:42:15.671Z,90.50
2018-07-05T08:44:48.034Z,90.50
2018-07-05T08:47:19.507Z,90.50
2018-07-05T08:49:49.401Z,90.40
2018-07-05T08:52:19.923Z,90.30
2018-07-05T08:54:49.810Z,90.40
2018-07-05T08:57:19.665Z,90.40
2018-07-05T08:59:49.890Z,90.40
2018-07-05T09:02:21.010Z,90.40
2018-07-05T09:04:50.962Z,90.40
2018-07-05T09:07:22.468Z,90.40
2018-07-05T09:09:52.869Z,90.40
2018-07-05T09:12:23.454Z,90.40
2018-07-05T09:14:53.323Z,90.30
2018-07-05T09:17:23.146Z,90.30
2018-07-05T09:19:53.526Z,90.20
2018-07-05T09:22:23.359Z,90.10
2018-07-05T09:24:53.739Z,90.10
2018-07-05T09:29:55.656Z,90.10
2018-07-05T09:32:26.639Z,90.10
2018-07-05T09:34:59.390Z,90.10
2018-07-05T09:37:29.988Z,90.10
2018-07-05T09:42:35.034Z,90.20
2018-07-05T09:47:47.790Z,90.10
2018-07-05T09:52:49.327Z,89.80
2018-07-05T09:55:20.626Z,89.50
2018-07-05T09:57:50.638Z,89.30
2018-07-05T10:00:24.420Z,89.10
2018-07-05T10:05:48.881Z,89.10
2018-07-05T10:11:06.652Z,88.80
2018-07-05T10:13:36.729Z,88.80
2018-07-05T10:17:09.196Z,88.80
2018-07-05T10:19:42.617Z,88.30
2018-07-05T10:22:23.759Z,87.80
2018-07-05T10:28:01.055Z,87.00
2018-07-05T10:30:53.077Z,86.80
2018-07-05T10:37:06.839Z,86.60
2018-07-05T10:39:44.312Z,85.80
2018-07-05T10:42:31.909Z,85.60
2018-07-05T10:58:19.704Z,85.30
2018-07-05T11:04:42.830Z,81.80
2018-07-05T11:07:51.788Z,81.90
2018-07-05T11:10:48.812Z,82.30
2018-07-05T11:13:39.188Z,82.60
2018-07-05T11:22:29.369Z,82.70
2018-07-05T11:28:13.229Z,83.00
2018-07-05T11:31:00.526Z,83.10
2018-07-05T11:46:44.701Z,83.20
2018-07-05T11:49:29.220Z,83.30
2018-07-05T11:52:11.775Z,83.70
2018-07-05T11:54:58.788Z,84.00
2018-07-05T11:57:42.731Z,84.50
2018-07-05T12:00:28.927Z,85.10
2018-07-05T12:09:31.569Z,85.60
2018-07-05T12:12:13.961Z,85.20
2018-07-05T12:14:57.614Z,85.10
2018-07-05T12:17:48.868Z,84.80
2018-07-05T12:20:32.559Z,84.90
2018-07-05T12:23:15.500Z,84.70
2018-07-05T12:25:57.863Z,84.50
2018-07-05T12:28:41.334Z,84.20
2018-07-05T12:31:27.329Z,84.00
2018-07-05T12:34:10.534Z,83.90
2018-07-05T12:36:54.898Z,83.90
2018-07-05T12:39:36.938Z,83.80
2018-07-05T12:42:19.461Z,83.90
2018-07-05T12:45:01.719Z,84.00
2018-07-05T12:47:43.944Z,84.00
2018-07-05T12:50:26.426Z,84.00
2018-07-05T12:53:09.469Z,84.00
2018-07-05T12:55:58.437Z,83.50
2018-07-05T12:58:43.472Z,83.00
2018-07-05T13:01:26.330Z,82.60
2018-07-05T13:04:09.315Z,82.30
2018-07-05T13:06:51.948Z,82.10
2018-07-05T13:09:36.244Z,81.70
2018-07-05T13:12:19.019Z,81.70
2018-07-05T13:21:02.288Z,80.40
2018-07-05T13:23:59.132Z,80.20
2018-07-05T13:26:43.882Z,79.90
2018-07-05T13:35:37.266Z,79.00
2018-07-05T13:38:21.318Z,78.30
2018-07-05T14:17:53.722Z,74.10
2018-07-05T14:39:01.430Z,72.80
2018-07-05T14:41:54.870Z,72.10
2018-07-05T14:44:47.009Z,72.40
2018-07-05T14:49:43.795Z,71.40
2018-07-05T14:55:12.994Z,70.70
2018-07-05T14:57:59.817Z,70.40
2018-07-05T15:01:23.026Z,70.50
2018-07-05T15:04:07.715Z,70.10
2018-07-05T15:06:50.297Z,69.10
2018-07-05T15:09:33.073Z,69.70
2018-07-05T15:12:16.519Z,68.50
2018-07-05T15:14:59.425Z,67.60
2018-07-05T15:17:44.129Z,67.00
2018-07-05T15:20:32.917Z,66.80
2018-07-05T15:23:17.972Z,67.20
2018-07-05T15:35:26.185Z,67.20
2018-07-05T15:38:13.211Z,67.40
2018-07-05T15:42:01.932Z,67.50
2018-07-05T15:47:50.766Z,65.80
2018-07-05T16:40:03.576Z,71.20
2018-07-05T17:16:10.062Z,67.80
2018-07-05T17:18:55.505Z,68.50
2018-07-05T17:21:48.692Z,68.80
2018-07-05T17:29:32.231Z,69.30
2018-07-05T17:35:12.336Z,69.60
2018-07-05T17:37:56.204Z,69.10
2018-07-05T17:40:38.472Z,69.00
2018-07-05T17:43:31.075Z,68.80
2018-07-05T17:49:42.715Z,67.60
2018-07-05T17:52:30.562Z,67.40
2018-07-05T17:55:21.052Z,67.00
2018-07-05T17:58:06.048Z,67.30
2018-07-05T18:00:50.063Z,67.90
2018-07-05T18:03:32.066Z,66.00
2018-07-05T18:06:16.589Z,66.70
2018-07-05T18:10:40.360Z,67.60
2018-07-05T18:16:01.848Z,70.90
2018-07-05T18:21:21.259Z,73.60
2018-07-05T18:24:03.908Z,74.10
2018-07-05T18:36:31.797Z,74.60
2018-07-05T18:39:14.970Z,74.10
2018-07-05T18:41:57.981Z,75.50
2018-07-05T18:44:44.338Z,76.30
2018-07-05T18:47:27.184Z,76.60
2018-07-05T18:50:10.417Z,76.90
2018-07-05T18:52:54.103Z,76.30
2018-07-05T18:55:36.533Z,76.00
2018-07-05T18:58:19.800Z,75.80
2018-07-05T19:01:02.699Z,76.40
2018-07-05T19:03:45.265Z,76.70
2018-07-05T19:06:28.446Z,77.30
2018-07-05T19:09:11.135Z,77.10
2018-07-05T19:14:42.478Z,76.20
2018-07-05T19:17:25.138Z,75.80
2018-07-05T19:20:07.706Z,74.70
2018-07-05T19:22:55.540Z,74.50
2018-07-05T19:25:44.561Z,75.00
2018-07-05T19:28:28.800Z,75.50
2018-07-05T19:33:49.590Z,75.10
2018-07-05T19:36:32.538Z,74.40
2018-07-05T19:39:15.094Z,73.70
2018-07-05T19:41:57.360Z,71.90
2018-07-05T19:44:40.606Z,71.00
2018-07-05T19:47:24.037Z,70.80
2018-07-05T19:50:07.595Z,68.80
2018-07-05T19:52:51.552Z,69.10
2018-07-05T19:55:36.456Z,69.50
2018-07-05T19:58:19.576Z,69.00
2018-07-05T20:01:02.419Z,68.60
2018-07-05T20:03:46.142Z,68.80
2018-07-05T20:06:29.568Z,70.50
2018-07-05T20:09:12.965Z,71.10
2018-07-05T20:11:59.744Z,71.80
2018-07-05T20:14:43.005Z,70.10
2018-07-05T20:17:25.377Z,69.30
2018-07-05T20:20:08.535Z,69.60
2018-07-05T20:22:51.042Z,68.50
2018-07-05T20:25:34.098Z,68.40
2018-07-05T20:28:17.350Z,67.90
2018-07-05T20:31:00.752Z,68.10
2018-07-05T20:33:44.093Z,67.90
2018-07-05T20:39:03.500Z,64.00
2018-07-05T20:41:45.966Z,64.50
2018-07-05T20:44:28.445Z,63.60
2018-07-05T20:47:11.663Z,63.50
2018-07-05T20:49:59.632Z,62.60
2018-07-05T20:52:41.942Z,61.80
2018-07-05T20:55:24.524Z,61.70
2018-07-05T20:58:08.041Z,61.50
2018-07-05T21:00:55.761Z,61.00
2018-07-05T21:03:40.534Z,60.50
2018-07-05T21:06:23.576Z,60.20
2018-07-05T21:09:14.863Z,59.20
2018-07-05T21:11:59.016Z,59.10
2018-07-05T21:17:28.814Z,61.00
2018-07-05T21:20:18.225Z,61.40
2018-07-05T21:23:04.429Z,61.50
2018-07-05T21:29:29.131Z,61.60
2018-07-05T21:32:15.895Z,62.00
2018-07-05T22:16:17.606Z,65.20
2018-07-05T22:19:29.278Z,65.10
2018-07-05T22:22:16.507Z,65.10
2018-07-05T22:25:04.313Z,65.00
2018-07-05T22:34:19.151Z,65.50
2018-07-05T22:37:07.983Z,65.80
2018-07-05T22:39:56.700Z,65.30
2018-07-05T22:42:39.999Z,65.70
2018-07-05T22:45:36.867Z,65.40
2018-07-05T22:48:30.918Z,65.10
2018-07-05T22:58:49.262Z,66.20
2018-07-05T23:01:35.493Z,65.70
2018-07-05T23:04:21.527Z,66.00
2018-07-05T23:07:13.384Z,66.20
2018-07-05T23:12:48.470Z,67.40
2018-07-05T23:17:20.819Z,67.20
2018-07-05T23:23:56.908Z,67.70
2018-07-05T23:26:53.436Z,68.10
2018-07-05T23:32:34.596Z,67.90
2018-07-05T23:35:19.880Z,68.30
2018-07-05T23:38:01.991Z,69.00
2018-07-05T23:43:34.022Z,68.50
2018-07-05T23:49:16.032Z,69.20
2018-07-05T23:52:14.973Z,69.80
2018-07-05T23:55:03.522Z,70.30
2018-07-05T23:57:46.463Z,70.50
